Time;durP1;ratioP1;P1;durP2;ratioP2;P2;SDS_P1;SDS_P2;PMS_P1;PMS_P2;Temp;Humidity;BMP_temperature;BMP_pressure;BME280_temperature;BME280_humidity;BME280_pressure;Samples;Min_cycle;Max_cycle;Signal;HPM_P1;HPM_P2
2023/05/02 00:01:22;;;;;;;;;7.75;6.75;;;;;12.21;73.28;102012.44;4978247;28;9960;-66
2023/05/02 00:03:49;;;;;;;;;6.50;5.00;;;;;12.26;73.15;102011.91;4969889;28;9913;-66
2023/05/02 00:06:15;;;;;;;;;5.25;5.25;;;;;12.26;72.99;102010.06;4974361;28;10190;-67
2023/05/02 00:08:42;;;;;;;;;7.50;6.50;;;;;12.22;72.69;102014.13;4971013;28;9690;-66
2023/05/02 00:11:08;;;;;;;;;4.75;3.50;;;;;12.16;72.65;102017.53;4970409;28;9773;-67
2023/05/02 00:13:35;;;;;;;;;3.00;3.00;;;;;12.16;73.24;102027.50;4956375;28;9835;-66
2023/05/02 00:16:01;;;;;;;;;2.00;2.00;;;;;12.12;73.26;102035.09;4972302;28;9857;-67
2023/05/02 00:18:28;;;;;;;;;6.75;6.25;;;;;12.08;73.40;102036.47;4970627;28;9679;-68
2023/05/02 00:20:55;;;;;;;;;5.50;5.50;;;;;12.08;73.18;102031.06;4985775;28;9855;-66
2023/05/02 00:23:22;;;;;;;;;3.50;3.00;;;;;12.05;73.59;102039.50;4952182;28;9959;-67
2023/05/02 00:25:49;;;;;;;;;5.00;4.50;;;;;12.02;73.56;102034.47;4972848;28;9856;-67
2023/05/02 00:28:15;;;;;;;;;5.25;4.50;;;;;12.02;73.21;102034.47;4970070;28;9856;-66
2023/05/02 00:30:45;;;;;;;;;9.25;6.50;;;;;12.00;73.73;102037.34;4951432;28;9770;-66
2023/05/02 00:33:13;;;;;;;;;4.50;3.00;;;;;12.07;73.54;102042.88;4964471;28;9990;-66
2023/05/02 00:35:40;;;;;;;;;6.00;6.00;;;;;11.99;72.81;102042.91;4983319;28;9980;-66
2023/05/02 00:38:07;;;;;;;;;8.00;5.00;;;;;11.90;72.81;102042.09;4975047;28;9967;-66
2023/05/02 00:40:47;;;;;;;;;5.00;5.00;;;;;11.86;72.88;102049.69;4963349;28;9930;-66
2023/05/02 00:43:14;;;;;;;;;6.75;5.50;;;;;11.84;72.56;102058.97;4974156;28;9996;-66
2023/05/02 00:45:42;;;;;;;;;6.50;6.50;;;;;11.79;71.87;102058.63;4972022;28;9949;-66
2023/05/02 00:48:09;;;;;;;;;6.00;5.00;;;;;11.81;72.52;102060.13;4956338;28;9938;-66
2023/05/02 00:50:39;;;;;;;;;4.00;3.50;;;;;11.91;72.81;102070.78;4960763;28;10131;-66
2023/05/02 00:53:07;;;;;;;;;7.75;7.75;;;;;11.85;71.33;102080.38;4973750;28;10051;-67
2023/05/02 00:55:34;;;;;;;;;3.50;3.50;;;;;11.78;71.40;102076.66;4941337;28;10042;-66
2023/05/02 00:58:03;;;;;;;;;4.75;3.50;;;;;11.74;72.07;102080.72;4956815;28;9919;-66
2023/05/02 01:00:40;;;;;;;;;3.00;3.00;;;;;11.72;71.00;102085.44;4985878;28;9914;-66
2023/05/02 01:03:24;;;;;;;;;7.75;5.75;;;;;11.72;71.22;102088.16;4969727;28;10720;-66
2023/05/02 01:06:10;;;;;;;;;5.25;5.00;;;;;11.61;70.46;102081.22;4972183;28;10563;-65
2023/05/02 01:08:49;;;;;;;;;2.00;1.25;;;;;11.61;70.39;102086.63;4969382;28;10036;-66
2023/05/02 01:11:27;;;;;;;;;2.00;1.00;;;;;11.60;70.53;102084.94;4975707;28;9907;-66
2023/05/02 01:13:58;;;;;;;;;4.50;2.50;;;;;11.51;68.34;102087.84;4973895;28;9854;-66
2023/05/02 01:16:26;;;;;;;;;2.50;1.50;;;;;11.42;69.27;102081.59;4956118;28;9854;-66
2023/05/02 01:18:53;;;;;;;;;1.50;1.50;;;;;11.50;69.37;102078.88;4982938;23;9954;-67
2023/05/02 01:21:20;;;;;;;;;1.50;1.00;;;;;11.50;68.75;102078.88;4951104;28;10051;-67
2023/05/02 01:24:09;;;;;;;;;2.00;2.00;;;;;11.49;68.76;102073.66;4952136;28;9961;-67
2023/05/02 01:26:58;;;;;;;;;0.00;0.00;;;;;11.56;68.40;102082.78;4961421;28;10172;-67
2023/05/02 01:29:26;;;;;;;;;1.00;1.00;;;;;11.60;68.05;102081.41;4931077;29;9960;-67
2023/05/02 01:31:55;;;;;;;;;2.25;1.00;;;;;11.57;67.51;102079.91;4930483;29;9801;-66
2023/05/02 01:34:24;;;;;;;;;1.00;1.00;;;;;11.50;67.39;102089.66;4949725;28;10055;-67
2023/05/02 01:36:53;;;;;;;;;2.00;1.00;;;;;11.46;67.16;102099.09;4968307;28;9872;-66
2023/05/02 01:39:22;;;;;;;;;1.00;1.00;;;;;11.41;66.75;102106.03;4943834;29;9868;-67
2023/05/02 01:41:52;;;;;;;;;1.00;0.00;;;;;11.31;66.37;102111.59;4915708;29;10580;-67
2023/05/02 01:44:23;;;;;;;;;3.00;1.25;;;;;11.21;67.13;102119.84;4931979;29;9971;-66
2023/05/02 01:46:53;;;;;;;;;0.75;0.75;;;;;11.21;67.12;102133.31;4956554;28;9875;-66
2023/05/02 01:49:23;;;;;;;;;0.25;0.25;;;;;11.23;67.44;102117.81;4927722;29;9958;-67
2023/05/02 01:51:51;;;;;;;;;1.00;1.00;;;;;11.23;66.72;102123.22;4930065;29;9959;-66
2023/05/02 01:54:20;;;;;;;;;0.00;0.00;;;;;11.24;67.10;102121.38;4936284;29;9975;-67
2023/05/02 01:56:48;;;;;;;;;0.25;0.25;;;;;11.30;67.17;102126.94;4915558;29;10363;-67
2023/05/02 01:59:18;;;;;;;;;3.50;1.25;;;;;11.33;66.76;102131.97;4946768;29;9869;-67
2023/05/02 02:01:47;;;;;;;;;2.00;1.00;;;;;11.29;66.95;102113.59;4937880;28;10046;-67
2023/05/02 02:04:16;;;;;;;;;3.50;1.00;;;;;11.24;66.44;102126.75;4953008;28;10139;-66
2023/05/02 02:06:47;;;;;;;;;1.00;1.00;;;;;11.24;66.79;102132.97;4945606;29;10753;-67
2023/05/02 02:09:14;;;;;;;;;1.25;0.00;;;;;11.19;67.09;102143.44;4922549;29;10023;-67
2023/05/02 02:12:23;;;;;;;;;1.00;1.00;;;;;11.28;67.22;102155.91;4953034;28;9912;-67
2023/05/02 02:15:02;;;;;;;;;1.00;1.00;;;;;11.31;67.24;102160.13;4910934;29;9934;-67
2023/05/02 02:17:38;;;;;;;;;2.00;1.00;;;;;11.27;67.24;102151.53;4915321;29;9883;-67
2023/05/02 02:20:08;;;;;;;;;0.00;0.00;;;;;11.25;66.86;102153.53;4940344;29;10873;-67
2023/05/02 02:22:40;;;;;;;;;1.00;1.00;;;;;11.23;66.37;102163.66;4919849;29;9855;-68
2023/05/02 02:25:10;;;;;;;;;0.25;0.25;;;;;11.24;66.74;102169.88;4936628;28;9988;-68
2023/05/02 02:27:37;;;;;;;;;0.00;0.00;;;;;11.25;66.25;102167.00;4943592;28;10012;-68
2023/05/02 02:30:04;;;;;;;;;0.00;0.00;;;;;11.24;66.51;102167.19;4944271;28;9972;-67
2023/05/02 02:32:31;;;;;;;;;4.00;2.00;;;;;11.20;66.07;102165.84;4917315;29;9947;-67
2023/05/02 02:34:58;;;;;;;;;0.00;0.00;;;;;11.06;65.92;102176.25;4941636;28;9949;-68
2023/05/02 02:37:30;;;;;;;;;1.25;1.25;;;;;11.06;66.11;102170.88;4948609;29;9938;-68
2023/05/02 02:40:10;;;;;;;;;1.00;1.00;;;;;10.96;65.55;102172.84;4933080;28;10101;-67
2023/05/02 02:43:06;;;;;;;;;6.00;0.75;;;;;11.00;66.05;102176.06;4949257;28;10690;-68
2023/05/02 02:45:55;;;;;;;;;1.00;1.00;;;;;10.96;65.20;102180.09;4950793;28;10048;-67
2023/05/02 02:48:33;;;;;;;;;4.00;1.25;;;;;10.86;65.72;102183.78;4959757;28;10201;-67
2023/05/02 02:51:14;;;;;;;;;1.00;1.00;;;;;10.91;65.94;102190.53;4931671;28;10258;-66
2023/05/02 02:54:12;;;;;;;;;0.50;0.00;;;;;10.90;65.62;102197.75;4951370;28;10853;-67
2023/05/02 02:57:26;;;;;;;;;0.00;0.00;;;;;10.81;64.82;102204.09;4941747;28;9937;-67
2023/05/02 03:00:10;;;;;;;;;0.00;0.00;;;;;10.68;64.61;102193.78;4947392;28;10044;-68
2023/05/02 03:02:41;;;;;;;;;0.00;0.00;;;;;10.70;64.95;102194.47;4930372;29;9931;-68
2023/05/02 03:05:09;;;;;;;;;0.25;0.25;;;;;10.79;64.61;102195.34;4930312;29;10020;-67
2023/05/02 03:07:36;;;;;;;;;0.00;0.00;;;;;10.83;64.92;102204.81;4948865;28;10186;-67
2023/05/02 03:10:03;;;;;;;;;1.00;1.00;;;;;10.96;64.52;102209.72;4954128;28;10137;-67
2023/05/02 03:12:32;;;;;;;;;0.00;0.00;;;;;10.96;64.43;102215.94;4941201;28;10133;-67
2023/05/02 03:15:13;;;;;;;;;0.75;0.25;;;;;10.99;63.92;102217.50;4945760;28;9941;-67
2023/05/02 03:17:41;;;;;;;;;1.00;1.00;;;;;11.01;64.27;102219.00;4967806;28;9905;-67
2023/05/02 03:20:07;;;;;;;;;3.00;1.00;;;;;11.01;63.88;102218.16;4943917;28;10120;-68
2023/05/02 03:22:34;;;;;;;;;0.75;0.75;;;;;10.96;63.65;102228.59;4934673;29;10031;-67
2023/05/02 03:25:00;;;;;;;;;2.50;1.00;;;;;10.88;63.65;102222.16;4942076;29;10063;-67
2023/05/02 03:27:28;;;;;;;;;0.75;0.00;;;;;10.85;63.97;102241.31;4919014;28;10126;-68
2023/05/02 03:29:54;;;;;;;;;0.75;0.75;;;;;10.85;63.63;102241.31;4956071;28;10022;-67
2023/05/02 03:32:21;;;;;;;;;2.00;1.50;;;;;10.86;64.03;102240.34;4951197;28;10026;-67
2023/05/02 03:34:48;;;;;;;;;1.50;0.75;;;;;10.86;64.18;102251.13;4942891;28;10065;-67
2023/05/02 03:37:15;;;;;;;;;1.00;1.00;;;;;10.87;64.44;102250.09;4929215;29;9880;-67
2023/05/02 03:39:41;;;;;;;;;0.50;0.50;;;;;10.82;64.07;102249.75;4934031;29;10127;-67
2023/05/02 03:42:08;;;;;;;;;0.00;0.00;;;;;10.83;64.53;102251.44;4929247;29;10039;-67
2023/05/02 03:44:36;;;;;;;;;5.00;1.75;;;;;10.78;64.42;102252.94;4947917;28;9954;-66
2023/05/02 03:47:03;;;;;;;;;2.00;2.00;;;;;10.81;64.72;102253.44;4933585;29;10064;-68
2023/05/02 03:49:35;;;;;;;;;7.25;2.75;;;;;10.75;64.62;102256.78;4942236;29;10041;-66
2023/05/02 03:52:02;;;;;;;;;2.00;1.00;;;;;10.72;65.28;102261.63;4929873;29;9937;-67
2023/05/02 03:54:32;;;;;;;;;3.75;1.00;;;;;10.74;64.76;102262.34;4932428;29;9909;-66
2023/05/02 03:56:59;;;;;;;;;2.00;2.00;;;;;10.70;65.50;102267.19;4952648;28;10245;-68
2023/05/02 03:59:40;;;;;;;;;1.00;1.00;;;;;10.71;65.82;102263.50;4955387;28;10056;-67
2023/05/02 04:02:14;;;;;;;;;1.00;1.00;;;;;10.75;66.10;102267.56;4966883;28;10060;-67
2023/05/02 04:04:46;;;;;;;;;1.75;1.75;;;;;10.76;65.81;102277.31;4938840;28;10038;-66
2023/05/02 04:07:18;;;;;;;;;0.25;0.25;;;;;10.62;66.18;102270.69;4953465;28;10035;-67
2023/05/02 04:09:48;;;;;;;;;1.00;1.00;;;;;10.62;66.22;102281.47;4930903;29;10057;-66
2023/05/02 04:12:15;;;;;;;;;1.75;1.00;;;;;10.64;66.14;102276.75;4935376;29;9939;-67
2023/05/02 04:14:45;;;;;;;;;1.00;1.00;;;;;10.62;66.40;102278.75;4950024;28;10114;-68
2023/05/02 04:17:14;;;;;;;;;3.50;2.00;;;;;10.67;66.64;102272.91;4950822;29;10140;-66
2023/05/02 04:19:44;;;;;;;;;4.50;3.00;;;;;10.60;65.89;102288.00;4953506;28;10051;-67
2023/05/02 04:22:12;;;;;;;;;3.50;2.50;;;;;10.57;65.95;102296.38;4919836;29;10999;-66
2023/05/02 04:24:44;;;;;;;;;4.50;1.75;;;;;10.49;65.83;102304.41;4935987;29;10031;-67
2023/05/02 04:27:12;;;;;;;;;2.50;2.00;;;;;10.46;65.89;102302.91;4947079;29;10146;-66
2023/05/02 04:29:41;;;;;;;;;1.75;1.75;;;;;10.44;64.80;102304.03;4948403;28;10225;-68
2023/05/02 04:32:13;;;;;;;;;2.00;2.00;;;;;10.38;65.35;102302.84;4933550;28;10053;-68
2023/05/02 04:34:43;;;;;;;;;4.25;1.00;;;;;10.36;65.04;102302.97;4937372;28;10060;-67
2023/05/02 04:37:10;;;;;;;;;5.25;4.75;;;;;10.34;65.61;102307.69;4962227;28;10038;-66
2023/05/02 04:39:37;;;;;;;;;3.25;2.00;;;;;10.42;65.20;102314.13;4960046;28;10324;-66
2023/05/02 04:42:10;;;;;;;;;2.50;2.50;;;;;10.48;64.99;102316.19;4916886;29;10060;-67
2023/05/02 04:44:44;;;;;;;;;3.50;2.00;;;;;10.43;64.82;102329.28;4934471;29;10134;-68
2023/05/02 04:47:11;;;;;;;;;5.25;3.25;;;;;10.46;64.05;102331.66;4951960;28;10049;-66
2023/05/02 04:49:37;;;;;;;;;3.00;2.00;;;;;10.47;63.82;102336.88;4956864;28;10177;-66
2023/05/02 04:52:04;;;;;;;;;7.00;3.00;;;;;10.49;64.05;102355.56;4942257;29;10198;-66
2023/05/02 04:54:33;;;;;;;;;7.75;4.50;;;;;10.38;64.13;102344.06;4941205;28;10311;-68
2023/05/02 04:57:02;;;;;;;;;3.00;3.00;;;;;10.35;63.70;102347.06;4928040;29;10216;-67
2023/05/02 04:59:31;;;;;;;;;1.00;1.00;;;;;10.37;63.40;102357.66;4934458;29;10188;-68
2023/05/02 05:02:00;;;;;;;;;2.75;2.00;;;;;10.36;64.09;102367.56;4950406;28;10202;-67
2023/05/02 05:04:26;;;;;;;;;6.50;2.50;;;;;10.38;64.35;102365.59;4949396;29;10696;-68
2023/05/02 05:06:53;;;;;;;;;4.00;3.00;;;;;10.33;64.11;102370.59;4950211;28;10320;-67
2023/05/02 05:09:23;;;;;;;;;1.00;1.00;;;;;10.32;64.12;102370.72;4948514;28;11112;-67
2023/05/02 05:11:50;;;;;;;;;3.00;1.25;;;;;10.34;63.35;102374.13;4961063;28;10195;-68
2023/05/02 05:14:17;;;;;;;;;4.00;4.00;;;;;10.35;64.41;102371.28;4949589;28;10448;-67
2023/05/02 05:16:47;;;;;;;;;0.00;0.00;;;;;10.43;63.94;102380.44;4969106;28;10174;-68
2023/05/02 05:19:14;;;;;;;;;3.50;2.00;;;;;10.31;62.54;102379.81;4964700;28;10123;-65
2023/05/02 05:21:41;;;;;;;;;3.00;1.00;;;;;10.24;62.58;102373.31;4933322;29;10096;-67
2023/05/02 05:24:08;;;;;;;;;9.25;2.00;;;;;10.21;62.55;102379.88;4935715;28;11133;-67
2023/05/02 05:26:34;;;;;;;;;2.75;2.00;;;;;10.27;62.54;102383.81;4948462;29;10125;-66
2023/05/02 05:29:01;;;;;;;;;5.00;4.50;;;;;10.34;62.20;102380.34;4933243;29;10299;-67
2023/05/02 05:31:34;;;;;;;;;6.00;2.00;;;;;10.38;62.31;102380.91;4940383;28;10397;-67
2023/05/02 05:34:01;;;;;;;;;2.75;1.25;;;;;10.41;61.68;102383.25;4926227;29;10138;-67
2023/05/02 05:36:28;;;;;;;;;1.00;1.00;;;;;10.34;61.36;102393.81;4949592;28;10204;-67
2023/05/02 05:38:55;;;;;;;;;3.00;2.00;;;;;10.28;60.99;102391.72;4947705;29;12382;-67
2023/05/02 05:41:23;;;;;;;;;2.00;2.00;;;;;10.27;61.16;102398.13;4925845;29;10196;-66
2023/05/02 05:43:56;;;;;;;;;0.00;0.00;;;;;10.26;61.04;102409.06;4953007;28;10325;-67
2023/05/02 05:46:24;;;;;;;;;2.75;1.25;;;;;10.35;62.00;102408.97;4931925;28;10031;-68
2023/05/02 05:48:52;;;;;;;;;3.00;3.00;;;;;10.34;60.87;102404.59;4930607;29;10371;-67
2023/05/02 05:51:18;;;;;;;;;1.00;1.00;;;;;10.33;60.87;102413.66;4933529;29;10443;-68
2023/05/02 05:53:45;;;;;;;;;0.75;0.75;;;;;10.38;60.41;102421.28;4949521;28;10437;-68
2023/05/02 05:56:12;;;;;;;;;1.00;1.00;;;;;10.39;60.61;102431.88;4943165;28;10171;-67
2023/05/02 05:58:45;;;;;;;;;1.25;1.25;;;;;10.39;60.34;102429.19;4949640;29;10267;-68
2023/05/02 06:01:13;;;;;;;;;2.00;1.25;;;;;10.36;60.65;102440.25;4933026;29;10386;-68
2023/05/02 06:03:40;;;;;;;;;1.50;1.00;;;;;10.46;60.99;102447.44;4949050;29;10057;-67
2023/05/02 06:06:07;;;;;;;;;2.00;2.00;;;;;10.36;61.31;102451.03;4918963;29;10177;-69
2023/05/02 06:08:33;;;;;;;;;1.75;1.00;;;;;10.25;61.49;102458.47;4930161;29;10339;-68
2023/05/02 06:11:00;;;;;;;;;0.00;0.00;;;;;10.22;62.22;102458.75;4945259;29;10367;-68
2023/05/02 06:13:26;;;;;;;;;0.00;0.00;;;;;10.13;61.70;102463.22;4949329;28;10344;-67
2023/05/02 06:15:54;;;;;;;;;4.00;2.00;;;;;10.12;61.86;102473.09;4933707;28;10945;-67
2023/05/02 06:18:21;;;;;;;;;5.75;3.50;;;;;10.16;61.73;102474.50;4915515;29;10248;-68
2023/05/02 06:20:47;;;;;;;;;2.00;1.00;;;;;10.20;61.71;102483.13;4943759;29;10394;-68
2023/05/02 06:23:14;;;;;;;;;2.25;1.50;;;;;10.23;61.63;102481.97;4948785;28;10181;-67
2023/05/02 06:25:40;;;;;;;;;1.00;1.00;;;;;10.26;61.48;102484.41;4935474;29;10134;-67
2023/05/02 06:28:08;;;;;;;;;1.00;1.00;;;;;10.27;61.86;102488.78;4929705;29;10219;-67
2023/05/02 06:30:35;;;;;;;;;1.00;1.00;;;;;10.28;61.49;102502.09;4941858;29;10982;-69
2023/05/02 06:33:04;;;;;;;;;1.00;1.00;;;;;10.30;61.28;102501.94;4930920;29;10318;-66
2023/05/02 06:35:31;;;;;;;;;2.75;1.00;;;;;10.24;60.37;102495.28;4935671;28;10182;-68
2023/05/02 06:37:57;;;;;;;;;1.25;1.00;;;;;10.29;60.76;102505.63;4915011;29;10291;-67
2023/05/02 06:40:24;;;;;;;;;2.75;1.00;;;;;10.33;60.21;102499.81;4929971;29;10346;-67
2023/05/02 06:42:50;;;;;;;;;1.00;1.00;;;;;10.39;59.92;102504.56;4915208;29;10283;-67
2023/05/02 06:45:17;;;;;;;;;1.00;1.00;;;;;10.42;59.78;102511.50;4923130;29;10282;-67
2023/05/02 06:47:43;;;;;;;;;1.50;1.50;;;;;10.39;59.24;102506.41;4936265;28;10444;-67
2023/05/02 06:50:10;;;;;;;;;0.25;0.25;;;;;10.46;59.54;102518.28;4924236;29;10240;-67
2023/05/02 06:52:36;;;;;;;;;2.00;0.75;;;;;10.57;60.10;102522.56;4933745;29;10018;-67
2023/05/02 06:55:04;;;;;;;;;1.00;1.00;;;;;10.62;59.16;102526.50;4925214;29;10201;-67
2023/05/02 06:57:30;;;;;;;;;1.75;1.00;;;;;10.63;58.89;102528.19;4914540;29;10035;-67
2023/05/02 06:59:57;;;;;;;;;1.50;0.75;;;;;10.67;59.15;102534.13;4915118;29;10213;-67
2023/05/02 07:02:24;;;;;;;;;1.25;1.00;;;;;10.72;58.85;102539.91;4933252;29;10228;-66
2023/05/02 07:04:51;;;;;;;;;1.00;1.00;;;;;10.75;58.56;102530.66;4921137;29;9947;-67
2023/05/02 07:07:19;;;;;;;;;0.50;0.00;;;;;10.77;59.00;102531.34;4929642;29;10287;-68
2023/05/02 07:09:45;;;;;;;;;2.25;1.00;;;;;10.79;59.13;102532.91;4915019;29;10133;-67
2023/05/02 07:12:12;;;;;;;;;1.00;1.00;;;;;10.86;58.74;102544.75;4914679;29;11030;-67
2023/05/02 07:14:39;;;;;;;;;2.00;2.00;;;;;10.80;57.97;102545.34;4933336;29;10747;-67
2023/05/02 07:17:05;;;;;;;;;3.50;2.00;;;;;10.71;57.68;102559.75;4932148;29;10129;-67
2023/05/02 07:19:32;;;;;;;;;2.00;1.00;;;;;10.69;58.02;102556.34;4981524;23;9976;-66
2023/05/02 07:21:58;;;;;;;;;0.75;0.75;;;;;10.69;57.77;102555.50;4966841;28;10067;-68
2023/05/02 07:24:25;;;;;;;;;1.25;1.00;;;;;10.76;57.92;102554.75;4955030;28;10856;-66
2023/05/02 07:26:51;;;;;;;;;4.00;1.75;;;;;10.70;57.45;102560.75;4971490;28;9957;-67
2023/05/02 07:29:18;;;;;;;;;1.50;1.00;;;;;10.81;56.72;102567.75;4958365;28;10101;-66
2023/05/02 07:31:44;;;;;;;;;1.00;1.00;;;;;10.85;55.52;102571.84;4954994;28;10096;-66
2023/05/02 07:34:11;;;;;;;;;0.75;0.75;;;;;10.92;56.03;102569.38;4971161;28;10804;-66
2023/05/02 07:36:37;;;;;;;;;0.25;0.25;;;;;10.84;55.92;102573.69;4954672;28;9856;-66
2023/05/02 07:39:04;;;;;;;;;1.00;1.00;;;;;10.91;55.96;102562.31;4951388;28;9944;-66
2023/05/02 07:41:30;;;;;;;;;5.00;1.00;;;;;11.02;56.34;102559.34;4956652;28;9996;-66
2023/05/02 07:43:57;;;;;;;;;1.00;1.00;;;;;11.12;54.94;102571.75;4951848;28;10071;-67
2023/05/02 07:46:23;;;;;;;;;2.00;1.00;;;;;11.27;53.46;102573.91;4950108;28;9898;-67
2023/05/02 07:48:50;;;;;;;;;0.75;0.00;;;;;11.26;52.31;102572.19;4952042;28;9685;-67
2023/05/02 07:51:19;;;;;;;;;1.50;0.00;;;;;11.37;52.46;102563.84;4950511;28;9923;-66
2023/05/02 07:53:46;;;;;;;;;1.00;1.00;;;;;11.42;51.94;102563.38;4950218;29;9773;-68
2023/05/02 07:56:12;;;;;;;;;2.50;1.50;;;;;11.46;52.39;102565.59;4951995;29;9935;-67
2023/05/02 07:58:38;;;;;;;;;0.00;0.00;;;;;11.46;51.63;102570.16;4952387;28;10022;-67
2023/05/02 08:01:05;;;;;;;;;0.25;0.25;;;;;11.50;51.63;102579.63;4950648;29;10033;-66
2023/05/02 08:03:32;;;;;;;;;0.00;0.00;;;;;11.63;50.82;102589.00;4951728;28;9932;-67
2023/05/02 08:05:58;;;;;;;;;1.25;1.00;;;;;11.76;50.51;102577.78;4951474;29;9861;-67
2023/05/02 08:08:25;;;;;;;;;0.50;0.50;;;;;11.79;48.63;102580.16;4951625;28;10904;-67
2023/05/02 08:10:51;;;;;;;;;1.50;1.50;;;;;11.79;48.73;102592.81;4950627;29;9854;-67
2023/05/02 08:13:18;;;;;;;;;0.00;0.00;;;;;11.74;48.86;102592.44;4950521;28;9830;-66
2023/05/02 08:15:44;;;;;;;;;0.00;0.00;;;;;11.67;48.05;102597.63;4951799;28;9921;-67
2023/05/02 08:18:11;;;;;;;;;1.00;1.00;;;;;11.50;47.69;102591.25;4934038;29;9753;-67
2023/05/02 08:20:38;;;;;;;;;1.00;1.00;;;;;11.50;48.38;102595.81;4951215;29;9915;-67
2023/05/02 08:23:04;;;;;;;;;0.00;0.00;;;;;11.58;48.81;102601.25;4950967;29;10611;-67
2023/05/02 08:25:31;;;;;;;;;0.00;0.00;;;;;11.57;48.46;102605.81;4950771;29;9714;-67
2023/05/02 08:27:57;;;;;;;;;2.75;0.00;;;;;11.45;49.10;102603.53;4954044;28;9854;-67
2023/05/02 08:30:24;;;;;;;;;0.25;0.25;;;;;11.39;49.86;102611.25;4959210;28;9830;-67
2023/05/02 08:32:50;;;;;;;;;0.25;0.25;;;;;11.30;49.86;102609.50;4951492;29;9755;-68
2023/05/02 08:35:17;;;;;;;;;2.00;1.00;;;;;11.46;49.15;102610.59;4952906;28;9768;-67
2023/05/02 08:37:43;;;;;;;;;1.75;1.00;;;;;11.66;47.58;102613.94;4951089;28;9875;-67
2023/05/02 08:40:11;;;;;;;;;0.00;0.00;;;;;11.85;46.82;102622.72;4950902;28;9767;-67
2023/05/02 08:42:41;;;;;;;;;0.00;0.00;;;;;12.13;46.44;102617.16;4950004;28;9800;-67
2023/05/02 08:45:09;;;;;;;;;1.00;1.00;;;;;12.23;45.48;102620.56;4949198;29;9597;-67
2023/05/02 08:47:39;;;;;;;;;3.00;2.00;;;;;12.15;46.28;102625.06;4962118;28;9645;-68
2023/05/02 08:50:07;;;;;;;;;1.00;1.00;;;;;12.04;46.54;102628.91;4961310;28;9845;-68
2023/05/02 08:52:35;;;;;;;;;2.50;1.25;;;;;11.91;47.77;102636.56;4949816;29;9748;-67
2023/05/02 08:55:03;;;;;;;;;1.00;1.00;;;;;11.75;46.95;102639.97;4950781;29;9684;-67
2023/05/02 08:57:30;;;;;;;;;0.00;0.00;;;;;11.79;47.59;102644.94;4934576;28;9672;-67
2023/05/02 08:59:57;;;;;;;;;3.00;1.25;;;;;11.82;47.70;102643.75;4954077;28;9796;-67
2023/05/02 09:02:47;;;;;;;;;3.75;2.00;;;;;11.80;48.28;102651.16;4949378;28;9842;-67
2023/05/02 09:05:19;;;;;;;;;1.50;1.50;;;;;11.79;47.49;102654.88;4963134;28;9876;-67
2023/05/02 09:07:48;;;;;;;;;1.25;1.25;;;;;11.78;47.52;102651.31;4937362;28;9867;-67
2023/05/02 09:10:14;;;;;;;;;1.00;1.00;;;;;11.81;47.70;102651.00;4954128;28;9691;-67
2023/05/02 09:12:41;;;;;;;;;1.00;1.00;;;;;11.84;46.67;102655.28;4954297;28;9738;-67
2023/05/02 09:15:08;;;;;;;;;2.00;2.00;;;;;11.79;46.65;102655.72;4953527;28;9765;-67
2023/05/02 09:17:42;;;;;;;;;2.50;1.25;;;;;11.86;46.73;102654.09;4956703;28;9869;-67
2023/05/02 09:20:14;;;;;;;;;0.75;0.50;;;;;12.08;47.48;102643.78;4949579;28;10424;-66
2023/05/02 09:22:51;;;;;;;;;1.00;1.00;;;;;12.09;45.85;102662.50;4935250;29;9745;-66
2023/05/02 09:25:21;;;;;;;;;1.00;1.00;;;;;12.04;46.06;102654.06;4934934;29;9680;-66
2023/05/02 09:27:55;;;;;;;;;1.50;1.50;;;;;12.08;43.61;102666.22;4935036;29;9682;-66
2023/05/02 09:30:24;;;;;;;;;4.25;2.00;;;;;12.32;43.06;102670.91;4943404;28;9691;-66
2023/05/02 09:32:52;;;;;;;;;1.25;0.75;;;;;12.43;43.33;102663.53;4955012;28;9508;-66
2023/05/02 09:35:22;;;;;;;;;2.00;2.00;;;;;12.43;42.98;102666.22;4960133;28;9719;-67
2023/05/02 09:37:54;;;;;;;;;2.00;2.00;;;;;12.40;44.09;102664.72;4942571;28;9608;-66
2023/05/02 09:40:22;;;;;;;;;2.00;2.00;;;;;12.35;44.35;102667.88;4964145;28;9588;-67
2023/05/02 09:42:49;;;;;;;;;0.75;0.75;;;;;12.29;43.63;102673.94;4946237;28;9882;-67
2023/05/02 09:45:19;;;;;;;;;2.75;2.75;;;;;12.20;43.60;102683.00;4963190;28;10315;-67
2023/05/02 09:47:48;;;;;;;;;1.75;1.75;;;;;12.11;43.81;102689.34;4955806;28;9689;-66
2023/05/02 09:50:32;;;;;;;;;2.00;2.00;;;;;12.44;43.28;102685.00;4962755;28;9860;-66
2023/05/02 09:53:06;;;;;;;;;1.25;1.00;;;;;12.61;43.58;102681.34;4952319;28;9758;-66
2023/05/02 09:55:32;;;;;;;;;2.00;2.00;;;;;12.76;42.98;102681.56;4951892;28;9567;-66
2023/05/02 09:58:00;;;;;;;;;1.75;1.75;;;;;12.72;43.18;102692.84;4953694;28;9607;-67
2023/05/02 10:00:43;;;;;;;;;2.00;2.00;;;;;12.72;43.19;102690.16;4958227;28;9598;-66
2023/05/02 10:03:14;;;;;;;;;2.25;1.75;;;;;12.72;42.82;102691.03;4953633;28;10473;-66
2023/05/02 10:05:42;;;;;;;;;1.25;1.25;;;;;12.65;42.92;102698.06;4952629;28;9627;-67
2023/05/02 10:08:09;;;;;;;;;1.50;1.50;;;;;12.59;42.97;102698.72;4953604;28;10241;-66
2023/05/02 10:10:38;;;;;;;;;3.00;3.00;;;;;12.62;43.09;102701.94;4952979;28;9540;-67
2023/05/02 10:13:05;;;;;;;;;2.00;2.00;;;;;12.81;42.19;102700.84;4951605;28;10697;-67
2023/05/02 10:15:33;;;;;;;;;1.25;1.25;;;;;13.02;42.27;102696.84;4954921;28;9766;-67
2023/05/02 10:18:12;;;;;;;;;3.75;2.25;;;;;13.28;41.92;102705.72;4951131;28;9602;-67
2023/05/02 10:20:48;;;;;;;;;0.75;0.75;;;;;13.41;42.03;102698.97;4957797;28;9573;-67
2023/05/02 10:23:18;;;;;;;;;1.00;1.00;;;;;13.33;42.25;102700.66;4953464;28;9530;-67
2023/05/02 10:25:45;;;;;;;;;2.00;2.00;;;;;13.34;41.72;102691.53;4935572;28;9641;-67
2023/05/02 10:28:13;;;;;;;;;1.50;1.50;;;;;13.40;42.27;102700.00;4953055;28;9486;-67
2023/05/02 10:30:40;;;;;;;;;1.00;1.00;;;;;13.40;41.73;102694.56;4952621;28;9453;-67
2023/05/02 10:33:07;;;;;;;;;2.00;2.00;;;;;13.49;41.99;102710.66;4960880;28;9453;-68
2023/05/02 10:35:36;;;;;;;;;4.50;3.00;;;;;13.27;40.50;102706.72;4959029;28;10253;-68
2023/05/02 10:38:04;;;;;;;;;2.25;2.25;;;;;13.06;41.49;102706.31;4952899;28;10362;-67
2023/05/02 10:40:30;;;;;;;;;2.75;2.75;;;;;13.28;41.99;102704.88;4952768;28;9386;-67
2023/05/02 10:42:57;;;;;;;;;4.25;2.00;;;;;13.30;41.26;102708.28;4951191;28;9545;-68
2023/05/02 10:45:34;;;;;;;;;3.00;2.00;;;;;13.18;40.50;102715.81;4952003;28;10343;-66
2023/05/02 10:48:11;;;;;;;;;3.50;2.50;;;;;13.04;41.17;102713.75;4950821;28;9745;-67
2023/05/02 10:50:50;;;;;;;;;2.00;1.00;;;;;13.07;41.37;102716.97;4951357;28;9478;-66
2023/05/02 10:53:39;;;;;;;;;2.00;1.25;;;;;13.44;41.71;102706.75;4952806;28;9372;-66
2023/05/02 10:56:20;;;;;;;;;2.00;2.00;;;;;13.70;40.35;102712.88;4952233;28;9518;-66
2023/05/02 10:58:49;;;;;;;;;6.25;3.00;;;;;13.61;40.09;102711.16;4952192;28;9604;-67
2023/05/02 11:01:25;;;;;;;;;4.50;3.25;;;;;13.56;40.74;102717.06;4947232;28;10226;-66
2023/05/02 11:03:55;;;;;;;;;4.00;4.00;;;;;13.43;39.58;102721.31;4933227;29;9896;-66
2023/05/02 11:06:23;;;;;;;;;2.00;2.00;;;;;13.36;40.41;102721.94;4932936;29;9461;-66
2023/05/02 11:08:50;;;;;;;;;3.50;3.50;;;;;13.36;40.40;102715.69;4933059;29;9618;-66
2023/05/02 11:11:36;;;;;;;;;3.00;3.00;;;;;13.52;40.28;102709.47;4950789;28;9458;-66
2023/05/02 11:14:03;;;;;;;;;3.00;3.00;;;;;13.62;40.72;102721.00;4934183;28;9643;-66
2023/05/02 11:17:08;;;;;;;;;2.00;2.00;;;;;13.67;40.90;102717.78;4953669;28;10479;-67
2023/05/02 11:19:37;;;;;;;;;2.50;2.50;;;;;13.59;39.89;102729.44;4929564;28;9654;-66
2023/05/02 11:22:16;;;;;;;;;2.75;1.25;;;;;13.68;40.13;102725.72;4950245;28;9569;-67
2023/05/02 11:24:46;;;;;;;;;6.25;5.00;;;;;13.99;39.97;102722.34;4950109;28;9547;-66
2023/05/02 11:27:28;;;;;;;;;4.75;4.75;;;;;14.17;39.48;102725.69;4950430;28;9687;-65
2023/05/02 11:29:58;;;;;;;;;2.25;2.00;;;;;13.93;39.09;102721.13;4944552;28;9636;-65
2023/05/02 11:32:44;;;;;;;;;3.00;3.00;;;;;13.78;39.92;102734.53;4936710;28;9619;-67
2023/05/02 11:35:25;;;;;;;;;2.00;1.75;;;;;13.79;40.31;102735.38;4966043;28;10312;-66
2023/05/02 11:37:56;;;;;;;;;5.00;3.00;;;;;13.97;39.92;102738.72;4954706;28;10146;-66
2023/05/02 11:40:25;;;;;;;;;1.75;1.75;;;;;14.11;39.92;102739.91;4943156;28;10440;-65
2023/05/02 11:42:52;;;;;;;;;2.00;2.00;;;;;14.41;39.71;102737.47;4951989;28;9400;-66